createdAt,value
2023-01-26T00:03:13.420Z,13.20
2023-01-26T00:08:15.551Z,14.68
2023-01-26T00:13:19.333Z,13.05
2023-01-26T00:18:21.448Z,14.27
2023-01-26T00:23:23.647Z,13.65
2023-01-26T00:28:28.680Z,14.20
2023-01-26T00:33:30.859Z,13.48
2023-01-26T00:38:33.030Z,14.57
2023-01-26T00:43:36.504Z,13.27
2023-01-26T00:48:38.632Z,12.85
2023-01-26T00:53:40.706Z,12.43
2023-01-26T00:58:44.294Z,13.13
2023-01-26T01:03:46.386Z,11.80
2023-01-26T01:08:48.859Z,11.55
2023-01-26T01:13:52.385Z,12.45
2023-01-26T01:18:55.196Z,11.60
2023-01-26T01:23:57.504Z,10.93
2023-01-26T01:29:01.123Z,10.85
2023-01-26T01:34:03.310Z,10.80
2023-01-26T01:39:05.461Z,10.20
2023-01-26T01:44:20.685Z,11.05
2023-01-26T01:49:28.225Z,9.93
2023-01-26T01:54:36.480Z,9.80
2023-01-26T01:59:40.129Z,9.23
2023-01-26T02:04:42.651Z,9.70
2023-01-26T02:09:45.493Z,8.60
2023-01-26T02:14:51.455Z,8.40
2023-01-26T02:20:01.022Z,8.70
2023-01-26T02:25:10.248Z,7.40
2023-01-26T02:30:16.215Z,8.30
2023-01-26T02:35:18.532Z,8.48
2023-01-26T02:40:30.562Z,8.65
2023-01-26T02:45:34.863Z,8.48
2023-01-26T02:50:37.053Z,7.78
2023-01-26T02:55:39.126Z,7.90
2023-01-26T03:00:42.747Z,8.05
2023-01-26T03:05:45.480Z,7.72
2023-01-26T03:10:48.802Z,7.20
2023-01-26T03:15:52.558Z,7.63
2023-01-26T03:20:54.971Z,8.30
2023-01-26T03:25:57.689Z,7.35
2023-01-26T03:31:01.296Z,7.10
2023-01-26T03:36:03.695Z,7.68
2023-01-26T03:41:05.757Z,7.43
2023-01-26T03:46:09.495Z,7.18
2023-01-26T03:51:11.523Z,7.80
2023-01-26T03:56:13.655Z,7.30
2023-01-26T04:01:17.322Z,6.55
2023-01-26T04:06:19.431Z,7.93
2023-01-26T04:11:21.583Z,7.60
2023-01-26T04:16:25.392Z,7.28
2023-01-26T04:21:27.591Z,7.63
2023-01-26T04:26:31.933Z,8.00
2023-01-26T04:31:35.818Z,7.97
2023-01-26T04:36:38.032Z,8.43
2023-01-26T04:41:42.274Z,7.57
2023-01-26T04:46:46.131Z,8.00
2023-01-26T04:51:48.276Z,8.13
2023-01-26T04:56:50.417Z,7.35
2023-01-26T05:01:54.016Z,7.43
2023-01-26T05:06:56.064Z,6.80
2023-01-26T05:11:58.518Z,7.43
2023-01-26T05:17:02.072Z,6.75
2023-01-26T05:22:04.178Z,7.20
2023-01-26T05:27:08.011Z,7.47
2023-01-26T05:32:11.945Z,7.13
2023-01-26T05:37:15.178Z,7.00
2023-01-26T05:42:18.314Z,7.65
2023-01-26T05:47:21.955Z,6.88
2023-01-26T05:52:24.116Z,7.05
2023-01-26T05:57:26.228Z,7.22
2023-01-26T06:02:29.778Z,7.50
2023-01-26T06:07:32.331Z,7.30
2023-01-26T06:12:34.433Z,7.57
2023-01-26T06:17:38.045Z,7.80
2023-01-26T06:22:40.300Z,7.88
2023-01-26T06:27:42.734Z,7.47
2023-01-26T06:32:49.260Z,7.50
2023-01-26T06:37:51.548Z,7.80
2023-01-26T06:42:53.693Z,8.05
2023-01-26T06:47:57.466Z,8.98
2023-01-26T06:53:00.795Z,9.25
2023-01-26T06:58:03.103Z,8.93
2023-01-26T07:03:06.691Z,9.02
2023-01-26T07:08:10.025Z,8.85
2023-01-26T07:13:12.114Z,8.32
2023-01-26T07:18:15.888Z,13.88
2023-01-26T07:23:17.986Z,9.45
2023-01-26T07:28:20.169Z,12.27
2023-01-26T07:33:23.783Z,9.70
2023-01-26T07:38:26.808Z,9.93
2023-01-26T07:43:28.976Z,8.68
2023-01-26T07:48:32.539Z,8.35
2023-01-26T07:53:35.232Z,10.50
2023-01-26T07:58:37.514Z,9.88
2023-01-26T08:03:42.003Z,10.38
2023-01-26T08:08:44.162Z,8.77
2023-01-26T08:13:46.381Z,7.60
2023-01-26T08:18:50.303Z,9.52
2023-01-26T08:23:52.821Z,11.02
2023-01-26T08:28:55.074Z,10.82
2023-01-26T08:33:59.106Z,8.75
2023-01-26T08:39:01.303Z,5.55
2023-01-26T08:44:03.472Z,10.88
2023-01-26T08:49:06.983Z,12.52
2023-01-26T08:54:09.214Z,10.77
2023-01-26T08:59:11.569Z,10.25
2023-01-26T09:04:15.165Z,14.20
2023-01-26T09:09:17.271Z,7.78
2023-01-26T09:14:19.394Z,34.25
2023-01-26T09:19:23.070Z,5.55
2023-01-26T09:24:25.451Z,7.25
2023-01-26T09:29:27.611Z,9.15
2023-01-26T09:34:31.216Z,8.38
2023-01-26T09:39:33.475Z,5.95
2023-01-26T09:44:45.247Z,4.88
2023-01-26T09:49:56.784Z,3.60
2023-01-26T09:55:02.755Z,3.28
2023-01-26T10:00:10.230Z,3.25
2023-01-26T10:05:20.706Z,2.80
2023-01-26T10:10:29.400Z,3.15
2023-01-26T10:15:36.908Z,3.05
2023-01-26T10:20:45.246Z,3.33
2023-01-26T10:25:47.746Z,2.60
2023-01-26T10:30:50.024Z,2.72
2023-01-26T10:35:54.187Z,2.60
2023-01-26T10:40:58.281Z,2.72
2023-01-26T10:46:03.258Z,2.47
2023-01-26T10:51:21.813Z,2.80
2023-01-26T10:56:24.215Z,3.25
2023-01-26T11:01:26.420Z,3.03
2023-01-26T11:06:31.565Z,3.80
2023-01-26T11:11:33.672Z,3.17
2023-01-26T11:16:36.515Z,3.58
2023-01-26T11:21:46.426Z,2.42
2023-01-26T11:27:20.404Z,1.85
2023-01-26T11:32:34.512Z,3.30
2023-01-26T11:37:43.042Z,2.33
2023-01-26T11:42:54.716Z,2.63
2023-01-26T11:48:17.914Z,2.22
2023-01-26T11:53:38.487Z,2.28
2023-01-26T11:58:45.317Z,2.30
2023-01-26T12:03:50.759Z,1.77
2023-01-26T12:09:00.337Z,1.63
2023-01-26T12:14:18.935Z,2.00
2023-01-26T12:19:38.233Z,1.67
2023-01-26T12:25:16.269Z,1.90
2023-01-26T12:30:26.916Z,3.20
2023-01-26T12:35:46.124Z,1.17
2023-01-26T12:41:02.342Z,1.75
2023-01-26T12:46:06.963Z,1.52
2023-01-26T12:51:12.833Z,1.33
2023-01-26T12:56:23.568Z,2.25
2023-01-26T13:01:36.980Z,2.10
2023-01-26T13:06:39.319Z,1.67
2023-01-26T13:11:46.836Z,1.40
2023-01-26T13:16:49.048Z,1.00
2023-01-26T13:21:51.328Z,0.93
2023-01-26T13:26:56.668Z,1.90
2023-01-26T13:32:00.912Z,1.23
2023-01-26T13:37:13.230Z,1.40
2023-01-26T13:42:23.920Z,1.35
2023-01-26T13:47:32.678Z,0.98
2023-01-26T13:52:42.385Z,4.70
2023-01-26T13:57:46.226Z,2.22
2023-01-26T14:02:51.391Z,1.20
2023-01-26T14:07:53.660Z,2.28
2023-01-26T14:12:57.862Z,1.75
2023-01-26T14:18:01.841Z,2.55
2023-01-26T14:23:14.180Z,1.50
2023-01-26T14:28:22.667Z,1.15
2023-01-26T14:33:25.140Z,1.25
2023-01-26T14:38:29.473Z,1.30
2023-01-26T14:43:33.019Z,2.53
2023-01-26T14:48:40.894Z,2.63
2023-01-26T14:53:49.640Z,2.05
2023-01-26T14:58:55.226Z,1.52
2023-01-26T15:04:01.555Z,2.05
2023-01-26T15:09:06.623Z,1.50
2023-01-26T15:14:33.096Z,1.30
2023-01-26T15:19:41.996Z,1.07
2023-01-26T15:24:47.283Z,2.05
2023-01-26T15:29:58.265Z,1.67
2023-01-26T15:35:07.439Z,1.17
2023-01-26T15:40:10.758Z,1.67
2023-01-26T15:45:23.472Z,3.63
2023-01-26T15:50:28.094Z,3.65
2023-01-26T15:55:33.423Z,2.58
2023-01-26T16:00:37.124Z,3.53
2023-01-26T16:05:39.278Z,3.20
2023-01-26T16:10:42.125Z,4.32
2023-01-26T16:15:47.904Z,3.50
2023-01-26T16:20:50.189Z,3.33
2023-01-26T16:25:53.285Z,2.70
2023-01-26T16:30:56.887Z,2.30
2023-01-26T16:35:59.080Z,2.55
2023-01-26T16:41:01.296Z,2.30
2023-01-26T16:46:04.954Z,2.38
2023-01-26T16:51:20.275Z,2.13
2023-01-26T16:56:23.386Z,2.20
2023-01-26T17:01:30.632Z,1.83
2023-01-26T17:11:34.713Z,2.53
2023-01-26T17:16:38.347Z,2.35
2023-01-26T17:21:40.651Z,2.42
2023-01-26T17:26:42.781Z,2.25
2023-01-26T17:31:46.399Z,1.83
2023-01-26T17:36:48.540Z,2.15
2023-01-26T17:41:53.704Z,2.45
2023-01-26T17:46:57.204Z,1.80
2023-01-26T17:51:59.320Z,1.92
2023-01-26T17:57:01.753Z,2.70
2023-01-26T18:02:05.290Z,2.20
2023-01-26T18:07:07.511Z,2.47
2023-01-26T18:12:09.751Z,2.55
2023-01-26T18:17:13.707Z,2.80
2023-01-26T18:22:15.796Z,2.75
2023-01-26T18:27:19.956Z,2.83
2023-01-26T18:32:24.409Z,3.25
2023-01-26T18:37:32.166Z,2.55
2023-01-26T18:42:35.172Z,2.35
2023-01-26T18:47:38.957Z,3.20
2023-01-26T18:52:41.686Z,2.78
2023-01-26T18:57:43.855Z,2.75
2023-01-26T19:02:49.070Z,3.03
2023-01-26T19:07:51.248Z,2.58
2023-01-26T19:12:53.361Z,3.00
2023-01-26T19:17:57.255Z,2.65
2023-01-26T19:23:02.547Z,1.98
2023-01-26T19:28:05.517Z,2.10
2023-01-26T19:33:09.447Z,2.78
2023-01-26T19:38:13.634Z,2.42
2023-01-26T19:43:17.254Z,2.70
2023-01-26T19:48:24.287Z,3.85
2023-01-26T19:53:26.686Z,2.80
2023-01-26T19:58:29.008Z,3.05
2023-01-26T20:03:33.341Z,4.93
2023-01-26T20:08:35.698Z,4.35
2023-01-26T20:13:38.533Z,5.00
2023-01-26T20:18:42.557Z,3.85
2023-01-26T20:23:53.906Z,5.10
2023-01-26T20:28:58.430Z,5.53
2023-01-26T20:34:02.685Z,5.88
2023-01-26T20:39:08.125Z,5.80
2023-01-26T20:44:11.220Z,6.03
2023-01-26T20:49:17.885Z,5.63
2023-01-26T20:54:20.913Z,6.70
2023-01-26T20:59:25.897Z,6.97
2023-01-26T21:04:32.683Z,6.57
2023-01-26T21:09:35.289Z,6.07
2023-01-26T21:14:38.152Z,6.38
2023-01-26T21:25:46.577Z,6.68
2023-01-26T21:30:57.874Z,6.68
2023-01-26T21:36:01.967Z,6.07
2023-01-26T21:41:07.082Z,6.03
2023-01-26T21:46:09.271Z,8.18
2023-01-26T21:51:11.494Z,5.38
2023-01-26T21:56:16.422Z,6.40
2023-01-26T22:01:18.657Z,5.38
2023-01-26T22:06:20.807Z,4.82
2023-01-26T22:11:24.510Z,3.45
2023-01-26T22:16:27.090Z,3.80
2023-01-26T22:21:29.349Z,4.10
2023-01-26T22:26:32.836Z,3.63
2023-01-26T22:31:35.362Z,2.28
2023-01-26T22:36:37.682Z,3.28
2023-01-26T22:41:41.203Z,2.72
2023-01-26T22:46:43.456Z,2.83
2023-01-26T22:51:45.556Z,3.00
2023-01-26T22:56:49.203Z,2.72
2023-01-26T23:01:51.295Z,2.60
2023-01-26T23:06:53.363Z,2.53
2023-01-26T23:11:56.872Z,2.47
2023-01-26T23:16:59.017Z,2.25
2023-01-26T23:22:01.123Z,2.53
2023-01-26T23:27:04.772Z,2.45
2023-01-26T23:32:07.101Z,2.90
2023-01-26T23:37:09.180Z,3.88
2023-01-26T23:42:14.872Z,3.33
2023-01-26T23:47:17.970Z,3.27
2023-01-26T23:52:20.166Z,3.00
2023-01-26T23:57:23.808Z,2.70
